sensor_id;sensor_type;location;lat;lon;timestamp;P1;durP1;ratioP1;P2;durP2;ratioP2
59054;SDS011;44845;51.444;7.460;2023-07-13T00:01:59;4.28;;;1.13;;
59054;SDS011;44845;51.444;7.460;2023-07-13T00:04:24;2.58;;;0.95;;
59054;SDS011;44845;51.444;7.460;2023-07-13T00:06:51;3.78;;;0.88;;
59054;SDS011;44845;51.444;7.460;2023-07-13T00:09:17;4.20;;;1.17;;
59054;SDS011;44845;51.444;7.460;2023-07-13T00:11:43;3.17;;;0.85;;
59054;SDS011;44845;51.444;7.460;2023-07-13T00:14:10;2.25;;;0.70;;
59054;SDS011;44845;51.444;7.460;2023-07-13T00:16:37;4.75;;;1.10;;
59054;SDS011;44845;51.444;7.460;2023-07-13T00:19:05;3.92;;;1.13;;
59054;SDS011;44845;51.444;7.460;2023-07-13T00:21:31;6.18;;;0.77;;
59054;SDS011;44845;51.444;7.460;2023-07-13T00:23:56;2.45;;;0.80;;
59054;SDS011;44845;51.444;7.460;2023-07-13T00:26:22;3.67;;;0.90;;
59054;SDS011;44845;51.444;7.460;2023-07-13T00:28:47;5.13;;;1.27;;
59054;SDS011;44845;51.444;7.460;2023-07-13T00:31:13;4.95;;;1.02;;
59054;SDS011;44845;51.444;7.460;2023-07-13T00:33:39;3.22;;;0.93;;
59054;SDS011;44845;51.444;7.460;2023-07-13T00:36:05;4.90;;;1.00;;
59054;SDS011;44845;51.444;7.460;2023-07-13T00:38:31;3.03;;;1.00;;
59054;SDS011;44845;51.444;7.460;2023-07-13T00:40:56;4.38;;;1.10;;
59054;SDS011;44845;51.444;7.460;2023-07-13T00:43:22;4.35;;;0.90;;
59054;SDS011;44845;51.444;7.460;2023-07-13T00:48:15;4.50;;;0.93;;
59054;SDS011;44845;51.444;7.460;2023-07-13T00:50:44;2.83;;;1.00;;
59054;SDS011;44845;51.444;7.460;2023-07-13T00:53:13;4.30;;;1.00;;
59054;SDS011;44845;51.444;7.460;2023-07-13T00:55:39;2.75;;;0.90;;
59054;SDS011;44845;51.444;7.460;2023-07-13T00:58:04;5.85;;;0.98;;
59054;SDS011;44845;51.444;7.460;2023-07-13T01:00:31;5.85;;;1.00;;
59054;SDS011;44845;51.444;7.460;2023-07-13T01:02:58;4.43;;;1.00;;
59054;SDS011;44845;51.444;7.460;2023-07-13T01:05:23;5.85;;;1.00;;
59054;SDS011;44845;51.444;7.460;2023-07-13T01:07:50;4.75;;;0.77;;
59054;SDS011;44845;51.444;7.460;2023-07-13T01:10:17;5.50;;;0.90;;
59054;SDS011;44845;51.444;7.460;2023-07-13T01:12:45;2.72;;;0.98;;
59054;SDS011;44845;51.444;7.460;2023-07-13T01:18:29;5.03;;;0.98;;
59054;SDS011;44845;51.444;7.460;2023-07-13T01:20:55;3.97;;;1.08;;
59054;SDS011;44845;51.444;7.460;2023-07-13T01:23:25;5.97;;;1.15;;
59054;SDS011;44845;51.444;7.460;2023-07-13T01:25:53;5.60;;;1.10;;
59054;SDS011;44845;51.444;7.460;2023-07-13T01:28:20;3.40;;;1.10;;
59054;SDS011;44845;51.444;7.460;2023-07-13T01:30:46;2.78;;;0.88;;
59054;SDS011;44845;51.444;7.460;2023-07-13T01:33:16;3.47;;;0.90;;
59054;SDS011;44845;51.444;7.460;2023-07-13T01:35:42;4.32;;;0.90;;
59054;SDS011;44845;51.444;7.460;2023-07-13T01:38:08;2.75;;;0.90;;
59054;SDS011;44845;51.444;7.460;2023-07-13T01:40:35;5.00;;;0.75;;
59054;SDS011;44845;51.444;7.460;2023-07-13T01:43:02;3.83;;;0.70;;
59054;SDS011;44845;51.444;7.460;2023-07-13T01:45:27;2.97;;;0.70;;
59054;SDS011;44845;51.444;7.460;2023-07-13T01:47:53;2.40;;;0.80;;
59054;SDS011;44845;51.444;7.460;2023-07-13T01:50:18;4.47;;;1.20;;
59054;SDS011;44845;51.444;7.460;2023-07-13T01:52:44;6.75;;;0.90;;
59054;SDS011;44845;51.444;7.460;2023-07-13T01:55:09;3.63;;;1.05;;
59054;SDS011;44845;51.444;7.460;2023-07-13T01:57:35;6.53;;;0.90;;
59054;SDS011;44845;51.444;7.460;2023-07-13T02:00:02;4.22;;;0.80;;
59054;SDS011;44845;51.444;7.460;2023-07-13T02:02:30;3.08;;;1.10;;
59054;SDS011;44845;51.444;7.460;2023-07-13T02:04:56;3.20;;;0.90;;
59054;SDS011;44845;51.444;7.460;2023-07-13T02:07:21;3.40;;;0.93;;
59054;SDS011;44845;51.444;7.460;2023-07-13T02:09:47;1.95;;;0.68;;
59054;SDS011;44845;51.444;7.460;2023-07-13T02:12:12;4.65;;;1.17;;
59054;SDS011;44845;51.444;7.460;2023-07-13T02:14:38;2.10;;;0.70;;
59054;SDS011;44845;51.444;7.460;2023-07-13T02:17:03;5.72;;;1.00;;
59054;SDS011;44845;51.444;7.460;2023-07-13T02:19:29;5.43;;;1.00;;
59054;SDS011;44845;51.444;7.460;2023-07-13T02:21:54;5.05;;;1.23;;
59054;SDS011;44845;51.444;7.460;2023-07-13T02:24:19;5.28;;;1.05;;
59054;SDS011;44845;51.444;7.460;2023-07-13T02:26:46;3.88;;;1.02;;
59054;SDS011;44845;51.444;7.460;2023-07-13T02:29:11;3.38;;;0.70;;
59054;SDS011;44845;51.444;7.460;2023-07-13T02:31:37;2.55;;;1.23;;
59054;SDS011;44845;51.444;7.460;2023-07-13T02:34:03;3.75;;;0.80;;
59054;SDS011;44845;51.444;7.460;2023-07-13T02:36:29;3.67;;;0.90;;
59054;SDS011;44845;51.444;7.460;2023-07-13T02:38:55;5.47;;;0.95;;
59054;SDS011;44845;51.444;7.460;2023-07-13T02:41:22;3.72;;;0.85;;
59054;SDS011;44845;51.444;7.460;2023-07-13T02:43:48;3.22;;;1.00;;
59054;SDS011;44845;51.444;7.460;2023-07-13T02:46:13;7.45;;;1.45;;
59054;SDS011;44845;51.444;7.460;2023-07-13T02:48:39;6.95;;;1.33;;
59054;SDS011;44845;51.444;7.460;2023-07-13T02:51:04;3.78;;;1.00;;
59054;SDS011;44845;51.444;7.460;2023-07-13T02:53:30;6.13;;;1.30;;
59054;SDS011;44845;51.444;7.460;2023-07-13T02:55:56;3.72;;;1.05;;
59054;SDS011;44845;51.444;7.460;2023-07-13T02:58:21;5.40;;;1.23;;
59054;SDS011;44845;51.444;7.460;2023-07-13T03:00:46;2.42;;;0.73;;
59054;SDS011;44845;51.444;7.460;2023-07-13T03:03:16;7.60;;;1.05;;
59054;SDS011;44845;51.444;7.460;2023-07-13T03:05:42;4.95;;;1.08;;
59054;SDS011;44845;51.444;7.460;2023-07-13T03:08:10;3.70;;;0.98;;
59054;SDS011;44845;51.444;7.460;2023-07-13T03:10:35;3.40;;;0.80;;
59054;SDS011;44845;51.444;7.460;2023-07-13T03:13:02;3.65;;;0.98;;
59054;SDS011;44845;51.444;7.460;2023-07-13T03:15:27;2.65;;;0.90;;
59054;SDS011;44845;51.444;7.460;2023-07-13T03:17:53;4.30;;;1.05;;
59054;SDS011;44845;51.444;7.460;2023-07-13T03:20:18;3.88;;;0.90;;
59054;SDS011;44845;51.444;7.460;2023-07-13T03:22:44;6.65;;;1.20;;
59054;SDS011;44845;51.444;7.460;2023-07-13T03:25:09;2.58;;;1.00;;
59054;SDS011;44845;51.444;7.460;2023-07-13T03:27:35;3.83;;;0.93;;
59054;SDS011;44845;51.444;7.460;2023-07-13T03:30:01;3.53;;;1.00;;
59054;SDS011;44845;51.444;7.460;2023-07-13T03:32:26;4.70;;;1.00;;
59054;SDS011;44845;51.444;7.460;2023-07-13T03:34:52;4.78;;;1.17;;
59054;SDS011;44845;51.444;7.460;2023-07-13T03:37:18;8.30;;;0.95;;
59054;SDS011;44845;51.444;7.460;2023-07-13T03:39:43;4.22;;;1.08;;
59054;SDS011;44845;51.444;7.460;2023-07-13T03:42:08;3.95;;;1.00;;
59054;SDS011;44845;51.444;7.460;2023-07-13T03:44:34;4.35;;;1.15;;
59054;SDS011;44845;51.444;7.460;2023-07-13T03:47:00;3.08;;;0.80;;
59054;SDS011;44845;51.444;7.460;2023-07-13T03:49:25;5.63;;;1.00;;
59054;SDS011;44845;51.444;7.460;2023-07-13T03:51:51;4.20;;;1.00;;
59054;SDS011;44845;51.444;7.460;2023-07-13T03:54:16;2.55;;;0.80;;
59054;SDS011;44845;51.444;7.460;2023-07-13T03:56:41;6.15;;;0.95;;
59054;SDS011;44845;51.444;7.460;2023-07-13T03:59:07;5.93;;;0.95;;
59054;SDS011;44845;51.444;7.460;2023-07-13T04:01:33;4.95;;;0.93;;
59054;SDS011;44845;51.444;7.460;2023-07-13T04:03:59;6.10;;;1.08;;
59054;SDS011;44845;51.444;7.460;2023-07-13T04:06:28;4.85;;;0.85;;
59054;SDS011;44845;51.444;7.460;2023-07-13T04:08:57;5.65;;;0.82;;
59054;SDS011;44845;51.444;7.460;2023-07-13T04:11:24;2.85;;;0.80;;
59054;SDS011;44845;51.444;7.460;2023-07-13T04:13:52;3.63;;;1.15;;
59054;SDS011;44845;51.444;7.460;2023-07-13T04:16:18;4.72;;;0.80;;
59054;SDS011;44845;51.444;7.460;2023-07-13T04:18:44;6.15;;;0.98;;
59054;SDS011;44845;51.444;7.460;2023-07-13T04:21:10;6.00;;;1.30;;
59054;SDS011;44845;51.444;7.460;2023-07-13T04:23:36;2.17;;;0.80;;
59054;SDS011;44845;51.444;7.460;2023-07-13T04:26:03;8.52;;;0.90;;
59054;SDS011;44845;51.444;7.460;2023-07-13T04:28:29;5.40;;;1.02;;
59054;SDS011;44845;51.444;7.460;2023-07-13T04:30:54;5.15;;;0.95;;
59054;SDS011;44845;51.444;7.460;2023-07-13T04:33:20;6.10;;;0.98;;
59054;SDS011;44845;51.444;7.460;2023-07-13T04:35:49;4.15;;;0.95;;
59054;SDS011;44845;51.444;7.460;2023-07-13T04:38:19;4.30;;;1.10;;
59054;SDS011;44845;51.444;7.460;2023-07-13T04:40:45;6.70;;;1.00;;
59054;SDS011;44845;51.444;7.460;2023-07-13T04:43:10;8.05;;;0.90;;
59054;SDS011;44845;51.444;7.460;2023-07-13T04:45:36;5.75;;;1.50;;
59054;SDS011;44845;51.444;7.460;2023-07-13T04:48:01;5.00;;;0.93;;
59054;SDS011;44845;51.444;7.460;2023-07-13T04:50:26;5.85;;;1.00;;
59054;SDS011;44845;51.444;7.460;2023-07-13T04:52:52;5.13;;;1.20;;
59054;SDS011;44845;51.444;7.460;2023-07-13T04:55:18;5.22;;;0.93;;
59054;SDS011;44845;51.444;7.460;2023-07-13T04:57:44;9.07;;;1.20;;
59054;SDS011;44845;51.444;7.460;2023-07-13T05:00:10;6.18;;;1.00;;
59054;SDS011;44845;51.444;7.460;2023-07-13T05:02:37;3.75;;;0.95;;
59054;SDS011;44845;51.444;7.460;2023-07-13T05:05:03;6.97;;;1.30;;
59054;SDS011;44845;51.444;7.460;2023-07-13T05:07:29;7.25;;;1.35;;
59054;SDS011;44845;51.444;7.460;2023-07-13T05:09:55;8.50;;;1.40;;
59054;SDS011;44845;51.444;7.460;2023-07-13T05:12:21;6.25;;;1.25;;
59054;SDS011;44845;51.444;7.460;2023-07-13T05:14:46;6.72;;;1.20;;
59054;SDS011;44845;51.444;7.460;2023-07-13T05:17:11;4.45;;;1.10;;
59054;SDS011;44845;51.444;7.460;2023-07-13T05:19:37;5.55;;;1.10;;
59054;SDS011;44845;51.444;7.460;2023-07-13T05:22:02;4.40;;;1.05;;
59054;SDS011;44845;51.444;7.460;2023-07-13T05:24:29;4.63;;;1.15;;
59054;SDS011;44845;51.444;7.460;2023-07-13T05:26:54;4.22;;;1.38;;
59054;SDS011;44845;51.444;7.460;2023-07-13T05:29:20;3.85;;;1.25;;
59054;SDS011;44845;51.444;7.460;2023-07-13T05:31:47;5.10;;;1.20;;
59054;SDS011;44845;51.444;7.460;2023-07-13T05:34:12;4.28;;;0.95;;
59054;SDS011;44845;51.444;7.460;2023-07-13T05:36:37;4.05;;;1.00;;
59054;SDS011;44845;51.444;7.460;2023-07-13T05:39:03;7.70;;;1.20;;
59054;SDS011;44845;51.444;7.460;2023-07-13T05:41:29;5.75;;;1.40;;
59054;SDS011;44845;51.444;7.460;2023-07-13T05:43:54;5.20;;;1.40;;
59054;SDS011;44845;51.444;7.460;2023-07-13T05:46:20;5.70;;;1.30;;
59054;SDS011;44845;51.444;7.460;2023-07-13T05:48:45;4.63;;;1.25;;
59054;SDS011;44845;51.444;7.460;2023-07-13T05:51:10;5.85;;;1.42;;
59054;SDS011;44845;51.444;7.460;2023-07-13T05:53:36;5.32;;;1.27;;
59054;SDS011;44845;51.444;7.460;2023-07-13T05:56:01;4.53;;;1.17;;
59054;SDS011;44845;51.444;7.460;2023-07-13T05:58:26;5.63;;;1.52;;
59054;SDS011;44845;51.444;7.460;2023-07-13T06:00:58;9.80;;;1.70;;
59054;SDS011;44845;51.444;7.460;2023-07-13T06:03:29;6.15;;;1.45;;
59054;SDS011;44845;51.444;7.460;2023-07-13T06:05:54;5.47;;;1.55;;
59054;SDS011;44845;51.444;7.460;2023-07-13T06:08:20;6.57;;;1.45;;
59054;SDS011;44845;51.444;7.460;2023-07-13T06:10:45;5.28;;;1.65;;
59054;SDS011;44845;51.444;7.460;2023-07-13T06:13:10;6.22;;;1.92;;
59054;SDS011;44845;51.444;7.460;2023-07-13T06:15:36;8.15;;;1.88;;
59054;SDS011;44845;51.444;7.460;2023-07-13T06:18:01;6.55;;;1.85;;
59054;SDS011;44845;51.444;7.460;2023-07-13T06:20:27;8.35;;;2.00;;
59054;SDS011;44845;51.444;7.460;2023-07-13T06:22:53;7.43;;;1.80;;
59054;SDS011;44845;51.444;7.460;2023-07-13T06:25:19;8.63;;;2.03;;
59054;SDS011;44845;51.444;7.460;2023-07-13T06:27:44;8.88;;;1.77;;
59054;SDS011;44845;51.444;7.460;2023-07-13T06:30:10;7.00;;;2.10;;
59054;SDS011;44845;51.444;7.460;2023-07-13T06:32:36;7.70;;;1.75;;
59054;SDS011;44845;51.444;7.460;2023-07-13T06:35:01;5.03;;;1.73;;
59054;SDS011;44845;51.444;7.460;2023-07-13T06:37:26;8.05;;;1.98;;
59054;SDS011;44845;51.444;7.460;2023-07-13T06:39:52;6.40;;;2.05;;
59054;SDS011;44845;51.444;7.460;2023-07-13T06:42:17;8.93;;;1.83;;
59054;SDS011;44845;51.444;7.460;2023-07-13T06:44:42;8.15;;;1.95;;
59054;SDS011;44845;51.444;7.460;2023-07-13T06:47:08;7.25;;;1.73;;
59054;SDS011;44845;51.444;7.460;2023-07-13T06:49:33;6.78;;;2.40;;
59054;SDS011;44845;51.444;7.460;2023-07-13T06:51:59;6.95;;;2.00;;
59054;SDS011;44845;51.444;7.460;2023-07-13T06:54:24;7.35;;;1.98;;
59054;SDS011;44845;51.444;7.460;2023-07-13T06:56:50;5.40;;;1.70;;
59054;SDS011;44845;51.444;7.460;2023-07-13T06:59:15;8.45;;;2.00;;
59054;SDS011;44845;51.444;7.460;2023-07-13T07:01:40;5.05;;;1.65;;
59054;SDS011;44845;51.444;7.460;2023-07-13T07:04:06;7.80;;;2.03;;
59054;SDS011;44845;51.444;7.460;2023-07-13T07:06:31;7.82;;;2.20;;
59054;SDS011;44845;51.444;7.460;2023-07-13T07:08:56;9.85;;;2.00;;
59054;SDS011;44845;51.444;7.460;2023-07-13T07:11:23;7.07;;;1.90;;
59054;SDS011;44845;51.444;7.460;2023-07-13T07:13:50;6.57;;;1.92;;
59054;SDS011;44845;51.444;7.460;2023-07-13T07:16:17;4.78;;;1.70;;
59054;SDS011;44845;51.444;7.460;2023-07-13T07:18:43;9.13;;;2.42;;
59054;SDS011;44845;51.444;7.460;2023-07-13T07:21:09;12.18;;;1.95;;
59054;SDS011;44845;51.444;7.460;2023-07-13T07:23:34;6.95;;;2.08;;
59054;SDS011;44845;51.444;7.460;2023-07-13T07:26:00;7.90;;;2.00;;
59054;SDS011;44845;51.444;7.460;2023-07-13T07:28:25;10.75;;;1.90;;
59054;SDS011;44845;51.444;7.460;2023-07-13T07:30:53;9.55;;;1.80;;
59054;SDS011;44845;51.444;7.460;2023-07-13T07:33:20;8.43;;;1.77;;
59054;SDS011;44845;51.444;7.460;2023-07-13T07:35:45;5.63;;;1.60;;
59054;SDS011;44845;51.444;7.460;2023-07-13T07:38:10;7.07;;;1.58;;
59054;SDS011;44845;51.444;7.460;2023-07-13T07:40:37;8.48;;;1.98;;
59054;SDS011;44845;51.444;7.460;2023-07-13T07:43:04;9.25;;;1.98;;
59054;SDS011;44845;51.444;7.460;2023-07-13T07:45:29;8.77;;;1.80;;
59054;SDS011;44845;51.444;7.460;2023-07-13T07:47:55;9.00;;;1.67;;
59054;SDS011;44845;51.444;7.460;2023-07-13T07:50:23;9.50;;;2.00;;
59054;SDS011;44845;51.444;7.460;2023-07-13T07:52:49;7.57;;;1.63;;
59054;SDS011;44845;51.444;7.460;2023-07-13T07:55:15;10.63;;;1.92;;
59054;SDS011;44845;51.444;7.460;2023-07-13T07:57:40;6.55;;;1.73;;
59054;SDS011;44845;51.444;7.460;2023-07-13T08:00:06;7.93;;;1.83;;
59054;SDS011;44845;51.444;7.460;2023-07-13T08:02:33;7.70;;;1.63;;
59054;SDS011;44845;51.444;7.460;2023-07-13T08:04:58;5.70;;;1.60;;
59054;SDS011;44845;51.444;7.460;2023-07-13T08:07:23;5.20;;;1.75;;
59054;SDS011;44845;51.444;7.460;2023-07-13T08:09:51;8.98;;;1.70;;
59054;SDS011;44845;51.444;7.460;2023-07-13T08:12:17;4.90;;;1.67;;
59054;SDS011;44845;51.444;7.460;2023-07-13T08:14:43;8.00;;;1.83;;
59054;SDS011;44845;51.444;7.460;2023-07-13T08:17:08;9.23;;;2.17;;
59054;SDS011;44845;51.444;7.460;2023-07-13T08:19:34;5.18;;;1.80;;
59054;SDS011;44845;51.444;7.460;2023-07-13T08:21:59;5.50;;;1.90;;
59054;SDS011;44845;51.444;7.460;2023-07-13T08:24:24;5.88;;;1.63;;
59054;SDS011;44845;51.444;7.460;2023-07-13T08:26:50;6.15;;;1.60;;
59054;SDS011;44845;51.444;7.460;2023-07-13T08:29:16;5.05;;;1.30;;
59054;SDS011;44845;51.444;7.460;2023-07-13T08:31:41;5.55;;;1.42;;
59054;SDS011;44845;51.444;7.460;2023-07-13T08:34:07;5.80;;;1.58;;
59054;SDS011;44845;51.444;7.460;2023-07-13T08:36:32;6.20;;;1.67;;
59054;SDS011;44845;51.444;7.460;2023-07-13T08:38:58;5.07;;;1.40;;
59054;SDS011;44845;51.444;7.460;2023-07-13T08:41:23;6.88;;;1.60;;
59054;SDS011;44845;51.444;7.460;2023-07-13T08:43:50;6.07;;;1.80;;
59054;SDS011;44845;51.444;7.460;2023-07-13T08:46:21;6.50;;;1.55;;
59054;SDS011;44845;51.444;7.460;2023-07-13T08:48:52;7.85;;;2.20;;
59054;SDS011;44845;51.444;7.460;2023-07-13T08:51:35;10.05;;;1.55;;
59054;SDS011;44845;51.444;7.460;2023-07-13T08:54:11;4.80;;;1.67;;
59054;SDS011;44845;51.444;7.460;2023-07-13T08:56:44;4.03;;;1.58;;
59054;SDS011;44845;51.444;7.460;2023-07-13T08:59:13;4.32;;;1.58;;
59054;SDS011;44845;51.444;7.460;2023-07-13T09:04:21;9.45;;;2.33;;
59054;SDS011;44845;51.444;7.460;2023-07-13T09:12:17;6.68;;;1.83;;
59054;SDS011;44845;51.444;7.460;2023-07-13T09:14:52;5.18;;;1.63;;
59054;SDS011;44845;51.444;7.460;2023-07-13T09:17:22;6.43;;;1.70;;
59054;SDS011;44845;51.444;7.460;2023-07-13T09:19:54;6.22;;;1.85;;
59054;SDS011;44845;51.444;7.460;2023-07-13T09:22:24;7.32;;;1.40;;
59054;SDS011;44845;51.444;7.460;2023-07-13T09:24:54;8.00;;;1.38;;
59054;SDS011;44845;51.444;7.460;2023-07-13T09:27:41;6.82;;;1.95;;
59054;SDS011;44845;51.444;7.460;2023-07-13T09:32:39;6.75;;;1.65;;
59054;SDS011;44845;51.444;7.460;2023-07-13T09:35:16;6.53;;;1.63;;
59054;SDS011;44845;51.444;7.460;2023-07-13T09:37:45;6.78;;;1.52;;
59054;SDS011;44845;51.444;7.460;2023-07-13T09:40:13;3.78;;;1.30;;
59054;SDS011;44845;51.444;7.460;2023-07-13T09:42:53;6.07;;;1.52;;
59054;SDS011;44845;51.444;7.460;2023-07-13T09:45:28;3.65;;;1.30;;
59054;SDS011;44845;51.444;7.460;2023-07-13T09:48:05;6.70;;;1.60;;
59054;SDS011;44845;51.444;7.460;2023-07-13T09:50:33;6.05;;;1.40;;
59054;SDS011;44845;51.444;7.460;2023-07-13T09:52:58;6.22;;;1.67;;
59054;SDS011;44845;51.444;7.460;2023-07-13T09:55:34;6.35;;;1.35;;
59054;SDS011;44845;51.444;7.460;2023-07-13T09:58:09;8.85;;;1.77;;
59054;SDS011;44845;51.444;7.460;2023-07-13T10:00:37;5.22;;;1.63;;
59054;SDS011;44845;51.444;7.460;2023-07-13T10:03:06;5.55;;;1.55;;
59054;SDS011;44845;51.444;7.460;2023-07-13T10:05:42;6.25;;;1.20;;
59054;SDS011;44845;51.444;7.460;2023-07-13T10:08:23;6.97;;;1.50;;
59054;SDS011;44845;51.444;7.460;2023-07-13T10:10:54;4.25;;;1.40;;
59054;SDS011;44845;51.444;7.460;2023-07-13T10:13:31;3.05;;;1.15;;
59054;SDS011;44845;51.444;7.460;2023-07-13T10:16:01;5.43;;;1.38;;
59054;SDS011;44845;51.444;7.460;2023-07-13T10:18:30;6.25;;;1.48;;
59054;SDS011;44845;51.444;7.460;2023-07-13T10:21:08;5.82;;;1.65;;
59054;SDS011;44845;51.444;7.460;2023-07-13T10:23:36;5.45;;;1.70;;
59054;SDS011;44845;51.444;7.460;2023-07-13T10:26:02;5.55;;;1.60;;
59054;SDS011;44845;51.444;7.460;2023-07-13T10:28:31;5.40;;;1.50;;
59054;SDS011;44845;51.444;7.460;2023-07-13T10:31:01;5.72;;;1.75;;
59054;SDS011;44845;51.444;7.460;2023-07-13T10:33:30;7.00;;;1.75;;
59054;SDS011;44845;51.444;7.460;2023-07-13T10:35:59;8.25;;;1.77;;
59054;SDS011;44845;51.444;7.460;2023-07-13T10:38:37;3.58;;;1.60;;
59054;SDS011;44845;51.444;7.460;2023-07-13T10:41:04;6.97;;;2.13;;
59054;SDS011;44845;51.444;7.460;2023-07-13T10:43:41;3.85;;;1.63;;
59054;SDS011;44845;51.444;7.460;2023-07-13T10:46:11;6.22;;;1.67;;
59054;SDS011;44845;51.444;7.460;2023-07-13T10:48:38;5.63;;;1.50;;
59054;SDS011;44845;51.444;7.460;2023-07-13T10:51:06;6.15;;;1.60;;
59054;SDS011;44845;51.444;7.460;2023-07-13T10:53:33;4.95;;;1.60;;
59054;SDS011;44845;51.444;7.460;2023-07-13T10:58:39;7.18;;;1.30;;
59054;SDS011;44845;51.444;7.460;2023-07-13T11:03:32;7.90;;;2.13;;
59054;SDS011;44845;51.444;7.460;2023-07-13T11:11:47;5.07;;;1.70;;
59054;SDS011;44845;51.444;7.460;2023-07-13T11:14:26;7.50;;;1.42;;
59054;SDS011;44845;51.444;7.460;2023-07-13T11:19:53;4.90;;;1.52;;
59054;SDS011;44845;51.444;7.460;2023-07-13T11:22:41;6.97;;;1.63;;
59054;SDS011;44845;51.444;7.460;2023-07-13T11:27:50;5.03;;;1.70;;
59054;SDS011;44845;51.444;7.460;2023-07-13T11:32:50;5.47;;;1.52;;
59054;SDS011;44845;51.444;7.460;2023-07-13T11:35:28;4.47;;;1.50;;
59054;SDS011;44845;51.444;7.460;2023-07-13T11:37:53;5.40;;;1.65;;
59054;SDS011;44845;51.444;7.460;2023-07-13T11:40:19;5.88;;;1.45;;
59054;SDS011;44845;51.444;7.460;2023-07-13T11:42:50;6.15;;;1.58;;
59054;SDS011;44845;51.444;7.460;2023-07-13T11:45:20;4.15;;;1.20;;
59054;SDS011;44845;51.444;7.460;2023-07-13T11:47:50;4.50;;;1.15;;
59054;SDS011;44845;51.444;7.460;2023-07-13T11:50:19;7.15;;;1.10;;
59054;SDS011;44845;51.444;7.460;2023-07-13T11:52:46;5.80;;;1.45;;
59054;SDS011;44845;51.444;7.460;2023-07-13T11:55:16;5.70;;;1.40;;
59054;SDS011;44845;51.444;7.460;2023-07-13T11:57:49;4.93;;;1.70;;
59054;SDS011;44845;51.444;7.460;2023-07-13T12:00:27;6.53;;;1.40;;
59054;SDS011;44845;51.444;7.460;2023-07-13T12:02:56;5.35;;;1.20;;
59054;SDS011;44845;51.444;7.460;2023-07-13T12:05:24;4.03;;;1.25;;
59054;SDS011;44845;51.444;7.460;2023-07-13T12:07:50;4.43;;;1.40;;
59054;SDS011;44845;51.444;7.460;2023-07-13T12:12:47;8.10;;;1.42;;
59054;SDS011;44845;51.444;7.460;2023-07-13T12:15:14;3.60;;;1.30;;
59054;SDS011;44845;51.444;7.460;2023-07-13T12:17:39;3.47;;;1.10;;
59054;SDS011;44845;51.444;7.460;2023-07-13T12:20:26;3.20;;;1.20;;
59054;SDS011;44845;51.444;7.460;2023-07-13T12:22:53;5.10;;;1.48;;
59054;SDS011;44845;51.444;7.460;2023-07-13T12:25:19;4.88;;;1.30;;
59054;SDS011;44845;51.444;7.460;2023-07-13T12:27:49;5.15;;;1.30;;
59054;SDS011;44845;51.444;7.460;2023-07-13T12:30:27;3.85;;;1.20;;
59054;SDS011;44845;51.444;7.460;2023-07-13T12:33:00;2.97;;;0.98;;
59054;SDS011;44845;51.444;7.460;2023-07-13T12:35:38;4.43;;;1.20;;
59054;SDS011;44845;51.444;7.460;2023-07-13T12:38:08;7.83;;;1.30;;
59054;SDS011;44845;51.444;7.460;2023-07-13T12:40:35;7.60;;;1.08;;
59054;SDS011;44845;51.444;7.460;2023-07-13T12:43:01;7.43;;;1.25;;
59054;SDS011;44845;51.444;7.460;2023-07-13T12:45:29;3.20;;;1.00;;
59054;SDS011;44845;51.444;7.460;2023-07-13T12:47:56;9.07;;;1.45;;
59054;SDS011;44845;51.444;7.460;2023-07-13T12:50:29;5.50;;;1.30;;
59054;SDS011;44845;51.444;7.460;2023-07-13T12:53:02;7.25;;;1.52;;
59054;SDS011;44845;51.444;7.460;2023-07-13T12:55:29;4.85;;;1.52;;
59054;SDS011;44845;51.444;7.460;2023-07-13T12:57:58;3.92;;;0.98;;
59054;SDS011;44845;51.444;7.460;2023-07-13T13:00:29;6.47;;;1.20;;
59054;SDS011;44845;51.444;7.460;2023-07-13T13:03:04;2.45;;;1.25;;
59054;SDS011;44845;51.444;7.460;2023-07-13T13:05:56;3.33;;;1.30;;
59054;SDS011;44845;51.444;7.460;2023-07-13T13:08:23;3.77;;;1.37;;
59054;SDS011;44845;51.444;7.460;2023-07-13T13:10:49;5.93;;;1.20;;
59054;SDS011;44845;51.444;7.460;2023-07-13T13:13:14;5.50;;;1.17;;
59054;SDS011;44845;51.444;7.460;2023-07-13T13:15:40;2.88;;;1.20;;
59054;SDS011;44845;51.444;7.460;2023-07-13T13:18:11;3.30;;;0.93;;
59054;SDS011;44845;51.444;7.460;2023-07-13T13:20:41;5.18;;;1.33;;
59054;SDS011;44845;51.444;7.460;2023-07-13T13:23:09;1.95;;;1.17;;
59054;SDS011;44845;51.444;7.460;2023-07-13T13:25:37;3.45;;;1.10;;
59054;SDS011;44845;51.444;7.460;2023-07-13T13:28:03;4.47;;;1.20;;
59054;SDS011;44845;51.444;7.460;2023-07-13T13:30:28;4.70;;;1.02;;
59054;SDS011;44845;51.444;7.460;2023-07-13T13:32:56;3.33;;;1.00;;
59054;SDS011;44845;51.444;7.460;2023-07-13T13:35:21;6.43;;;1.50;;
59054;SDS011;44845;51.444;7.460;2023-07-13T13:37:47;3.03;;;1.15;;
59054;SDS011;44845;51.444;7.460;2023-07-13T13:40:16;4.38;;;0.82;;
59054;SDS011;44845;51.444;7.460;2023-07-13T13:42:43;3.53;;;1.23;;
59054;SDS011;44845;51.444;7.460;2023-07-13T13:45:11;6.13;;;1.50;;
59054;SDS011;44845;51.444;7.460;2023-07-13T13:47:38;2.05;;;0.80;;
59054;SDS011;44845;51.444;7.460;2023-07-13T13:50:10;5.88;;;1.40;;
59054;SDS011;44845;51.444;7.460;2023-07-13T13:52:44;6.28;;;1.35;;
59054;SDS011;44845;51.444;7.460;2023-07-13T13:55:17;3.55;;;1.30;;
59054;SDS011;44845;51.444;7.460;2023-07-13T13:57:47;2.92;;;1.15;;
59054;SDS011;44845;51.444;7.460;2023-07-13T14:00:13;6.00;;;1.50;;
59054;SDS011;44845;51.444;7.460;2023-07-13T14:02:42;3.40;;;1.40;;
59054;SDS011;44845;51.444;7.460;2023-07-13T14:05:12;6.85;;;1.75;;
59054;SDS011;44845;51.444;7.460;2023-07-13T14:07:39;4.43;;;1.45;;
59054;SDS011;44845;51.444;7.460;2023-07-13T14:10:10;4.47;;;1.25;;
59054;SDS011;44845;51.444;7.460;2023-07-13T14:12:38;3.73;;;1.37;;
59054;SDS011;44845;51.444;7.460;2023-07-13T14:15:04;5.45;;;1.60;;
59054;SDS011;44845;51.444;7.460;2023-07-13T14:17:29;6.57;;;1.63;;
59054;SDS011;44845;51.444;7.460;2023-07-13T14:19:56;3.28;;;1.48;;
59054;SDS011;44845;51.444;7.460;2023-07-13T14:22:25;5.05;;;1.98;;
59054;SDS011;44845;51.444;7.460;2023-07-13T14:24:54;4.88;;;1.63;;
59054;SDS011;44845;51.444;7.460;2023-07-13T14:27:21;4.07;;;1.75;;
59054;SDS011;44845;51.444;7.460;2023-07-13T14:29:46;3.75;;;1.80;;
59054;SDS011;44845;51.444;7.460;2023-07-13T14:32:12;8.40;;;1.63;;
59054;SDS011;44845;51.444;7.460;2023-07-13T14:34:38;4.72;;;1.85;;
59054;SDS011;44845;51.444;7.460;2023-07-13T14:37:04;4.90;;;2.03;;
59054;SDS011;44845;51.444;7.460;2023-07-13T14:39:30;3.17;;;1.65;;
59054;SDS011;44845;51.444;7.460;2023-07-13T14:41:58;4.25;;;1.50;;
59054;SDS011;44845;51.444;7.460;2023-07-13T14:44:24;4.68;;;1.40;;
59054;SDS011;44845;51.444;7.460;2023-07-13T14:46:53;4.07;;;1.83;;
59054;SDS011;44845;51.444;7.460;2023-07-13T14:52:00;3.95;;;1.45;;
59054;SDS011;44845;51.444;7.460;2023-07-13T14:54:28;10.45;;;2.70;;
59054;SDS011;44845;51.444;7.460;2023-07-13T14:56:54;10.75;;;2.20;;
59054;SDS011;44845;51.444;7.460;2023-07-13T14:59:19;4.22;;;2.00;;
59054;SDS011;44845;51.444;7.460;2023-07-13T15:01:45;2.75;;;1.90;;
59054;SDS011;44845;51.444;7.460;2023-07-13T15:04:12;5.82;;;2.13;;
59054;SDS011;44845;51.444;7.460;2023-07-13T15:09:18;7.78;;;2.22;;
59054;SDS011;44845;51.444;7.460;2023-07-13T15:11:43;5.05;;;1.88;;
59054;SDS011;44845;51.444;7.460;2023-07-13T15:14:09;6.90;;;2.78;;
59054;SDS011;44845;51.444;7.460;2023-07-13T15:16:34;6.50;;;2.05;;
59054;SDS011;44845;51.444;7.460;2023-07-13T15:18:59;6.40;;;2.70;;
59054;SDS011;44845;51.444;7.460;2023-07-13T15:21:25;6.97;;;2.30;;
59054;SDS011;44845;51.444;7.460;2023-07-13T15:23:53;7.05;;;2.60;;
59054;SDS011;44845;51.444;7.460;2023-07-13T15:26:19;6.38;;;2.65;;
59054;SDS011;44845;51.444;7.460;2023-07-13T15:28:45;5.68;;;1.95;;
59054;SDS011;44845;51.444;7.460;2023-07-13T15:31:18;4.28;;;2.28;;
59054;SDS011;44845;51.444;7.460;2023-07-13T15:33:48;3.53;;;1.83;;